Terminal Aerodrome Forecast
Issued by NWS

Home | Current Version | Previous Version | Text Only | Print | Product List | Glossary On
Versions: 1 2 3 4 5 6 7 8 9 10 11 12 13 14 15 16
000
FTUS45 KFGZ 260520
TAFPRC
TAF
KPRC 260520Z 2606/2706 20005KT P6SM FEW080
     FM261800 25010G15KT P6SM SCT060
     FM270300 22008KT P6SM SCT080=

USA.gov is the U.S. government's official web portal to all federal, state and local government web resources and services.